Observation data for Friona on 09/13/2017      Previous  Date  Next       Current Mesonet Observations  Soil Data  Daily Summary Page  Observations in Plain Language
KFAS 130500Z 14007KT 23/12 A3003 RMK A01 T02250121  RH  053%=      5-min Rain = 0
KFAS 130505Z 15007KT 22/12 A3003 RMK A01 T02220123  RH  054%=      5-min Rain = 0
KFAS 130510Z 14006KT 22/12 A3003 RMK A01 T02200122  RH  055%=      5-min Rain = 0
KFAS 130515Z 14005KT 22/12 A3003 RMK A01 T02190122  RH  055%=      5-min Rain = 0
KFAS 130520Z 15006KT 22/12 A3003 RMK A01 T02180121  RH  055%=      5-min Rain = 0
KFAS 130525Z 16006KT 22/12 A3003 RMK A01 T02170122  RH  056%=      5-min Rain = 0
KFAS 130530Z 18006KT 21/12 A3003 RMK A01 T02140123  RH  057%=      5-min Rain = 0
KFAS 130535Z 18006KT 21/12 A3003 RMK A01 T02120123  RH  058%=      5-min Rain = 0
KFAS 130540Z 19006KT 21/13 A3003 RMK A01 T02110127  RH  060%=      5-min Rain = 0
KFAS 130545Z 19006KT 21/13 A3003 RMK A01 T02070129  RH  062%=      5-min Rain = 0
KFAS 130550Z 19008KT 20/13 A3003 RMK A01 T02040128  RH  063%=      5-min Rain = 0
KFAS 130555Z 19008KT 21/13 A3002 RMK A01 T02050128  RH  062%=      5-min Rain = 0
KFAS 130600Z 18008KT 21/13 A3002 RMK A01 T02080125  RH  060%=      5-min Rain = 0
KFAS 130605Z 18008KT 21/13 A3002 RMK A01 T02080126  RH  061%=      5-min Rain = 0
KFAS 130610Z 18008KT 21/12 A3001 RMK A01 T02070123  RH  060%=      5-min Rain = 0
KFAS 130615Z 17008KT 21/12 A3001 RMK A01 T02080122  RH  059%=      5-min Rain = 0
KFAS 130620Z 16008KT 21/12 A30 RMK A01 T02070122  RH  059%=      5-min Rain = 0
KFAS 130625Z 16008KT 21/12 A30 RMK A01 T02070121  RH  059%=      5-min Rain = 0
KFAS 130630Z 16007KT 21/12 A30 RMK A01 T02060122  RH  060%=      5-min Rain = 0
KFAS 130635Z 16007KT 20/12 A30 RMK A01 T02040123  RH  061%=      5-min Rain = 0
KFAS 130640Z 16007KT 20/12 A30 RMK A01 T02040123  RH  061%=      5-min Rain = 0
KFAS 130645Z 15008KT 20/12 A2999 RMK A01 T02040121  RH  060%=      5-min Rain = 0
KFAS 130650Z 14007KT 20/12 A2999 RMK A01 T02040122  RH  060%=      5-min Rain = 0
KFAS 130655Z 14007KT 20/12 A2999 RMK A01 T02030123  RH  061%=      5-min Rain = 0
KFAS 130700Z 14007KT 20/12 A2998 RMK A01 T02030122  RH  061%=      5-min Rain = 0
KFAS 130705Z 13008KT 20/12 A2998 RMK A01 T02040121  RH  060%=      5-min Rain = 0
KFAS 130710Z 13008KT 20/12 A2998 RMK A01 T02040121  RH  060%=      5-min Rain = 0
KFAS 130715Z 12008KT 20/12 A2998 RMK A01 T02040120  RH  059%=      5-min Rain = 0
KFAS 130720Z 13008KT 20/12 A2998 RMK A01 T02040120  RH  060%=      5-min Rain = 0
KFAS 130725Z 13008KT 20/12 A2997 RMK A01 T02040119  RH  060%=      5-min Rain = 0
KFAS 130730Z 13007KT 20/12 A2997 RMK A01 T02040119  RH  059%=      5-min Rain = 0
KFAS 130735Z 16006KT 20/12 A2998 RMK A01 T02030121  RH  060%=      5-min Rain = 0
KFAS 130740Z 15006KT 20/12 A2997 RMK A01 T02010120  RH  061%=      5-min Rain = 0
KFAS 130745Z 14006KT 20/12 A2997 RMK A01 T02020119  RH  060%=      5-min Rain = 0
KFAS 130750Z 14005KT 20/12 A2997 RMK A01 T02020119  RH  060%=      5-min Rain = 0
KFAS 130755Z 14005KT 20/12 A2997 RMK A01 T02020118  RH  060%=      5-min Rain = 0
KFAS 130800Z 13006KT 20/12 A2997 RMK A01 T02010117  RH  059%=      5-min Rain = 0
KFAS 130805Z 13006KT 20/12 A2997 RMK A01 T02010117  RH  059%=      5-min Rain = 0
KFAS 130810Z 13006KT 20/12 A2997 RMK A01 T02000116  RH  059%=      5-min Rain = 0
KFAS 130815Z 13006KT 20/12 A2997 RMK A01 T02000116  RH  059%=      5-min Rain = 0
KFAS 130820Z 15006KT 20/12 A2997 RMK A01 T01980116  RH  060%=      5-min Rain = 0
KFAS 130825Z 15005KT 20/12 A2997 RMK A01 T01960116  RH  061%=      5-min Rain = 0
KFAS 130830Z 15005KT 19/12 A2997 RMK A01 T01940116  RH  061%=      5-min Rain = 0
KFAS 130835Z 15004KT 19/12 A2997 RMK A01 T01920116  RH  062%=      5-min Rain = 0
KFAS 130840Z 15004KT 19/11 A2997 RMK A01 T01900114  RH  063%=      5-min Rain = 0
KFAS 130845Z 14004KT 19/11 A2997 RMK A01 T01880114  RH  063%=      5-min Rain = 0
KFAS 130850Z 14005KT 19/11 A2997 RMK A01 T01870113  RH  063%=      5-min Rain = 0
KFAS 130855Z 15005KT 18/11 A2997 RMK A01 T01840113  RH  064%=      5-min Rain = 0
KFAS 130900Z 15005KT 18/11 A2997 RMK A01 T01810113  RH  065%=      5-min Rain = 0
KFAS 130905Z 16005KT 18/11 A2997 RMK A01 T01780113  RH  067%=      5-min Rain = 0
KFAS 130910Z 16005KT 18/11 A2997 RMK A01 T01760113  RH  068%=      5-min Rain = 0
KFAS 130915Z 16005KT 17/11 A2997 RMK A01 T01720113  RH  069%=      5-min Rain = 0
KFAS 130920Z 15004KT 17/11 A2997 RMK A01 T01700113  RH  071%=      5-min Rain = 0
KFAS 130925Z 15003KT 17/11 A2997 RMK A01 T01690113  RH  071%=      5-min Rain = 0
KFAS 130930Z 16001KT 17/11 A2997 RMK A01 T01670113  RH  072%=      5-min Rain = 0
KFAS 130935Z 16001KT 17/11 A2997 RMK A01 T01670114  RH  072%=      5-min Rain = 0
KFAS 130940Z 14001KT 17/11 A2997 RMK A01 T01690114  RH  071%=      5-min Rain = 0
KFAS 130945Z 12000KT 17/11 A2997 RMK A01 T01700114  RH  071%=      5-min Rain = 0
KFAS 130950Z 36001KT 17/11 A2997 RMK A01 T01650112  RH  072%=      5-min Rain = 0
KFAS 130955Z 35002KT 16/12 A2997 RMK A01 T01620117  RH  076%=      5-min Rain = 0
KFAS 131000Z 33003KT 16/12 A2997 RMK A01 T01590118  RH  078%=      5-min Rain = 0
KFAS 131005Z 35001KT 16/11 A2997 RMK A01 T01610114  RH  075%=      5-min Rain = 0
KFAS 131010Z 18001KT 17/11 A2997 RMK A01 T01660114  RH  072%=      5-min Rain = 0
KFAS 131015Z 15001KT 17/11 A2998 RMK A01 T01670111  RH  070%=      5-min Rain = 0
KFAS 131020Z 33002KT 17/11 A2998 RMK A01 T01660111  RH  071%=      5-min Rain = 0
KFAS 131025Z 35001KT 16/11 A2998 RMK A01 T01620111  RH  073%=      5-min Rain = 0
KFAS 131030Z 16001KT 16/11 A2998 RMK A01 T01580108  RH  074%=      5-min Rain = 0
KFAS 131035Z 17000KT 15/11 A2998 RMK A01 T01500106  RH  076%=      5-min Rain = 0
KFAS 131040Z 17000KT 15/11 A2998 RMK A01 T01480108  RH  078%=      5-min Rain = 0
KFAS 131045Z 00000KT 15/11 A2998 RMK A01 T01530109  RH  077%=      5-min Rain = 0
KFAS 131050Z 17000KT 16/11 A2998 RMK A01 T01570108  RH  074%=      5-min Rain = 0
KFAS 131055Z 17001KT 15/11 A2998 RMK A01 T01530106  RH  075%=      5-min Rain = 0
KFAS 131100Z 17001KT 15/10 A2998 RMK A01 T01460104  RH  077%=      5-min Rain = 0
KFAS 131105Z 03001KT 15/11 A2998 RMK A01 T01460111  RH  081%=      5-min Rain = 0
KFAS 131110Z 00002KT 15/12 A2998 RMK A01 T01500123  RH  085%=      5-min Rain = 0
KFAS 131115Z 35002KT 15/12 A2998 RMK A01 T01460117  RH  084%=      5-min Rain = 0
KFAS 131120Z 33002KT 14/11 A2998 RMK A01 T01440110  RH  082%=      5-min Rain = 0
KFAS 131125Z 34001KT 14/11 A2998 RMK A01 T01440108  RH  080%=      5-min Rain = 0
KFAS 131130Z 35000KT 15/11 A2997 RMK A01 T01460109  RH  079%=      5-min Rain = 0
KFAS 131135Z 00000KT 15/11 A2997 RMK A01 T01460108  RH  080%=      5-min Rain = 0
KFAS 131140Z 00000KT 14/10 A2997 RMK A01 T01420104  RH  079%=      5-min Rain = 0
KFAS 131145Z 35000KT 14/10 A2997 RMK A01 T01360101  RH  081%=      5-min Rain = 0
KFAS 131150Z 34000KT 13/10 A2997 RMK A01 T01280099  RH  084%=      5-min Rain = 0
KFAS 131155Z 14002KT 13/10 A2997 RMK A01 T01250101  RH  087%=      5-min Rain = 0
KFAS 131200Z 16002KT 12/10 A2997 RMK A01 T01220100  RH  088%=      5-min Rain = 0
KFAS 131205Z 16002KT 13/11 A2997 RMK A01 T01250107  RH  090%=      5-min Rain = 0
KFAS 131210Z 18003KT 13/11 A2997 RMK A01 T01290108  RH  089%=      5-min Rain = 0
KFAS 131215Z 24002KT 13/11 A2998 RMK A01 T01280105  RH  088%=      5-min Rain = 0
KFAS 131220Z 25003KT 12/10 A2998 RMK A01 T01230100  RH  088%=      5-min Rain = 0
KFAS 131225Z 30003KT 12/10 A2998 RMK A01 T01190098  RH  089%=      5-min Rain = 0
KFAS 131230Z 32002KT 12/10 A2998 RMK A01 T01170098  RH  089%=      5-min Rain = 0
KFAS 131235Z 32003KT 12/10 A2998 RMK A01 T01170098  RH  089%=      5-min Rain = 0
KFAS 131240Z 33002KT 12/10 A2998 RMK A01 T01190100  RH  089%=      5-min Rain = 0
KFAS 131245Z 33002KT 12/10 A2999 RMK A01 T01220102  RH  089%=      5-min Rain = 0
KFAS 131250Z 35002KT 12/10 A2999 RMK A01 T01220100  RH  088%=      5-min Rain = 0
KFAS 131255Z 01002KT 12/10 A2999 RMK A01 T01220102  RH  089%=      5-min Rain = 0
KFAS 131300Z 01001KT 12/10 A2999 RMK A01 T01240103  RH  089%=      5-min Rain = 0
KFAS 131305Z 03001KT 12/10 A2999 RMK A01 T01240102  RH  088%=      5-min Rain = 0
KFAS 131310Z 04001KT 12/10 A2999 RMK A01 T01240103  RH  088%=      5-min Rain = 0
KFAS 131315Z 04001KT 13/11 A2999 RMK A01 T01270107  RH  089%=      5-min Rain = 0
KFAS 131320Z 07000KT 13/11 A2999 RMK A01 T01300110  RH  089%=      5-min Rain = 0
KFAS 131325Z 10002KT 14/12 A2999 RMK A01 T01350115  RH  089%=      5-min Rain = 0
KFAS 131330Z 10002KT 14/12 A30 RMK A01 T01420120  RH  088%=      5-min Rain = 0
KFAS 131335Z 10001KT 15/12 A30 RMK A01 T01480122  RH  086%=      5-min Rain = 0
KFAS 131340Z 13001KT 15/12 A30 RMK A01 T01520122  RH  083%=      5-min Rain = 0
KFAS 131345Z 15002KT 16/12 A30 RMK A01 T01580122  RH  081%=      5-min Rain = 0
KFAS 131350Z 15002KT 17/12 A30 RMK A01 T01660124  RH  078%=      5-min Rain = 0
KFAS 131355Z 13001KT 17/12 A30 RMK A01 T01720121  RH  074%=      5-min Rain = 0
KFAS 131400Z 11001KT 18/12 A30 RMK A01 T01750119  RH  071%=      5-min Rain = 0
KFAS 131405Z 09002KT 18/12 A30 RMK A01 T01790119  RH  069%=      5-min Rain = 0
KFAS 131410Z 10002KT 18/12 A30 RMK A01 T01820121  RH  068%=      5-min Rain = 0
KFAS 131415Z 10003KT 19/12 A2999 RMK A01 T01860118  RH  066%=      5-min Rain = 0
KFAS 131420Z 11004KT 19/12 A2999 RMK A01 T01910117  RH  063%=      5-min Rain = 0
KFAS 131425Z 12004KT 19/12 A2999 RMK A01 T01940116  RH  061%=      5-min Rain = 0
KFAS 131430Z 12004KT 20/12 A2999 RMK A01 T01960119  RH  062%=      5-min Rain = 0
KFAS 131435Z 13005KT 20/12 A2999 RMK A01 T02000119  RH  061%=      5-min Rain = 0
KFAS 131440Z 16006KT 21/12 A2999 RMK A01 T02070115  RH  057%=      5-min Rain = 0
KFAS 131445Z 15007KT 21/11 A2999 RMK A01 T02130113  RH  054%=      5-min Rain = 0
KFAS 131450Z 16008KT 22/11 A2999 RMK A01 T02160112  RH  052%=      5-min Rain = 0
KFAS 131455Z 16009KT 22/11 A2999 RMK A01 T02190111  RH  051%=      5-min Rain = 0
KFAS 131500Z 16009KT 22/11 A2999 RMK A01 T02200111  RH  051%=      5-min Rain = 0
KFAS 131505Z 16009KT 22/11 A2999 RMK A01 T02210113  RH  051%=      5-min Rain = 0
KFAS 131510Z 16010KT 23/11 A2999 RMK A01 T02250113  RH  050%=      5-min Rain = 0
KFAS 131515Z 16010KT 23/11 A2999 RMK A01 T02290114  RH  049%=      5-min Rain = 0
KFAS 131520Z 17010KT 23/11 A2999 RMK A01 T02330114  RH  048%=      5-min Rain = 0
KFAS 131525Z 18011KT 24/11 A2999 RMK A01 T02350113  RH  047%=      5-min Rain = 0
KFAS 131530Z 18011KT 24/11 A2999 RMK A01 T02350114  RH  048%=      5-min Rain = 0
KFAS 131535Z 18009KT 24/12 A2999 RMK A01 T02350116  RH  048%=      5-min Rain = 0
KFAS 131540Z 19011KT 24/12 A2999 RMK A01 T02380117  RH  048%=      5-min Rain = 0
KFAS 131545Z 19009KT 24/12 A2999 RMK A01 T02390119  RH  048%=      5-min Rain = 0
KFAS 131550Z 17010KT 24/12 A2999 RMK A01 T02400116  RH  047%=      5-min Rain = 0
KFAS 131555Z 19009KT 24/12 A2999 RMK A01 T02420119  RH  047%=      5-min Rain = 0
KFAS 131600Z 19009KT 24/12 A2999 RMK A01 T02430117  RH  046%=      5-min Rain = 0
KFAS 131605Z 19010KT 25/12 A2999 RMK A01 T02450116  RH  045%=      5-min Rain = 0
KFAS 131610Z 18009KT 25/12 A2999 RMK A01 T02480118  RH  045%=      5-min Rain = 0
KFAS 131615Z 19008KT 25/12 A2999 RMK A01 T02500119  RH  045%=      5-min Rain = 0
KFAS 131620Z 18008KT 25/11 A2999 RMK A01 T02510114  RH  043%=      5-min Rain = 0
KFAS 131625Z 17008KT 25/12 A2998 RMK A01 T02530116  RH  043%=      5-min Rain = 0
KFAS 131630Z 18008KT 26/12 A2999 RMK A01 T02560116  RH  042%=      5-min Rain = 0
KFAS 131635Z 18007KT 26/12 A2999 RMK A01 T02580117  RH  042%=      5-min Rain = 0
KFAS 131640Z 17007KT 26/11 A2998 RMK A01 T02600113  RH  041%=      5-min Rain = 0
KFAS 131645Z 16007KT 26/12 A2998 RMK A01 T02620115  RH  041%=      5-min Rain = 0
KFAS 131650Z 17007KT 27/12 A2998 RMK A01 T02650115  RH  040%=      5-min Rain = 0
KFAS 131655Z 19006KT 27/11 A2998 RMK A01 T02670110  RH  038%=      5-min Rain = 0
KFAS 131700Z 17005KT 27/11 A2998 RMK A01 T02680106  RH  037%=      5-min Rain = 0
KFAS 131705Z 17006KT 27/11 A2998 RMK A01 T02700107  RH  037%=      5-min Rain = 0
KFAS 131710Z 21005KT 27/11 A2998 RMK A01 T02700106  RH  037%=      5-min Rain = 0
KFAS 131715Z 17005KT 27/11 A2998 RMK A01 T02720108  RH  037%=      5-min Rain = 0
KFAS 131720Z 16006KT 27/11 A2998 RMK A01 T02740106  RH  036%=      5-min Rain = 0
KFAS 131725Z 16004KT 28/11 A2998 RMK A01 T02770106  RH  035%=      5-min Rain = 0
KFAS 131730Z 17005KT 28/11 A2997 RMK A01 T02780105  RH  035%=      5-min Rain = 0
KFAS 131735Z 16003KT 28/10 A2997 RMK A01 T02790101  RH  034%=      5-min Rain = 0
KFAS 131740Z 18004KT 28/10 A2997 RMK A01 T02810100  RH  033%=      5-min Rain = 0
KFAS 131745Z 17004KT 28/11 A2997 RMK A01 T02840107  RH  034%=      5-min Rain = 0
KFAS 131750Z 18005KT 29/11 A2997 RMK A01 T02860111  RH  034%=      5-min Rain = 0
KFAS 131755Z 19005KT 29/10 A2997 RMK A01 T02870104  RH  033%=      5-min Rain = 0
KFAS 131800Z 22004KT 29/10 A2996 RMK A01 T02850098  RH  032%=      5-min Rain = 0
KFAS 131805Z 22003G8KT 29/10 A2996 RMK A01 T02850100  RH  032%=      5-min Rain = 0
KFAS 131810Z 16005KT 29/11 A2996 RMK A01 T02880109  RH  033%=      5-min Rain = 0
KFAS 131815Z 14007KT 29/11 A2996 RMK A01 T02910111  RH  033%=      5-min Rain = 0
KFAS 131820Z 16007KT 29/11 A2996 RMK A01 T02910111  RH  033%=      5-min Rain = 0
KFAS 131825Z 14007G12KT 29/11 A2996 RMK A01 T02900109  RH  033%=      5-min Rain = 0
KFAS 131830Z 15007KT 29/11 A2995 RMK A01 T02910111  RH  034%=      5-min Rain = 0
KFAS 131835Z 13008KT 29/11 A2995 RMK A01 T02920109  RH  033%=      5-min Rain = 0
KFAS 131840Z 15007KT 29/11 A2995 RMK A01 T02920110  RH  033%=      5-min Rain = 0
KFAS 131845Z 14007KT 29/11 A2995 RMK A01 T02940109  RH  032%=      5-min Rain = 0
KFAS 131850Z 16006KT 29/11 A2995 RMK A01 T02930105  RH  032%=      5-min Rain = 0
KFAS 131855Z 14007KT 30/11 A2995 RMK A01 T02950106  RH  031%=      5-min Rain = 0
KFAS 131900Z 14006KT 30/10 A2995 RMK A01 T02960104  RH  031%=      5-min Rain = 0
KFAS 131905Z 15007KT 30/11 A2994 RMK A01 T02980105  RH  031%=      5-min Rain = 0
KFAS 131910Z 14004KT 30/10 A2994 RMK A01 T02970098  RH  030%=      5-min Rain = 0
KFAS 131915Z 15006KT 30/10 A2994 RMK A01 T02990103  RH  030%=      5-min Rain = 0
KFAS 131920Z 16007KT 30/09 A2994 RMK A01 T03000093  RH  028%=      5-min Rain = 0
KFAS 131925Z 16006G11KT 30/09 A2994 RMK A01 T03000092  RH  028%=      5-min Rain = 0
KFAS 131930Z 15006G11KT 30/10 A2993 RMK A01 T03020098  RH  029%=      5-min Rain = 0
KFAS 131935Z 15006KT 30/10 A2993 RMK A01 T03020103  RH  030%=      5-min Rain = 0
KFAS 131940Z 18006KT 30/11 A2993 RMK A01 T03030108  RH  031%=      5-min Rain = 0
KFAS 131945Z 15005KT 31/11 A2993 RMK A01 T03050106  RH  030%=      5-min Rain = 0
KFAS 131950Z 11003G8KT 30/10 A2993 RMK A01 T03030099  RH  029%=      5-min Rain = 0
KFAS 131955Z 17007KT 31/11 A2992 RMK A01 T03060108  RH  030%=      5-min Rain = 0
KFAS 132000Z 14008KT 31/11 A2992 RMK A01 T03080107  RH  029%=      5-min Rain = 0
KFAS 132005Z 15005KT 31/10 A2992 RMK A01 T03050104  RH  029%=      5-min Rain = 0
KFAS 132010Z 19007KT 31/10 A2992 RMK A01 T03080103  RH  029%=      5-min Rain = 0
KFAS 132015Z 18005G10KT 31/10 A2992 RMK A01 T03080096  RH  027%=      5-min Rain = 0
KFAS 132020Z 19006G13KT 31/10 A2991 RMK A01 T03070096  RH  027%=      5-min Rain = 0
KFAS 132025Z 19004KT 31/10 A2991 RMK A01 T03080095  RH  027%=      5-min Rain = 0
KFAS 132030Z 17004KT 31/10 A2991 RMK A01 T03100099  RH  027%=      5-min Rain = 0
KFAS 132035Z 19008KT 31/10 A2991 RMK A01 T03100103  RH  028%=      5-min Rain = 0
KFAS 132040Z 18005G10KT 31/10 A2991 RMK A01 T03080103  RH  029%=      5-min Rain = 0
KFAS 132045Z 17005G10KT 31/11 A2991 RMK A01 T03110106  RH  029%=      5-min Rain = 0
KFAS 132050Z 18006G11KT 31/10 A299 RMK A01 T03120099  RH  027%=      5-min Rain = 0
KFAS 132055Z 19006KT 31/10 A299 RMK A01 T03130104  RH  028%=      5-min Rain = 0
KFAS 132100Z 19005G11KT 31/10 A299 RMK A01 T03120095  RH  027%=      5-min Rain = 0
KFAS 132105Z 18005G10KT 31/10 A299 RMK A01 T03140100  RH  027%=      5-min Rain = 0
KFAS 132110Z 18004G10KT 32/09 A299 RMK A01 T03150092  RH  026%=      5-min Rain = 0
KFAS 132115Z 19006KT 32/10 A299 RMK A01 T03160103  RH  027%=      5-min Rain = 0
KFAS 132120Z 22006KT 32/10 A2989 RMK A01 T03160097  RH  026%=      5-min Rain = 0
KFAS 132125Z 21006KT 32/10 A2989 RMK A01 T03150095  RH  026%=      5-min Rain = 0
KFAS 132130Z 16004KT 31/09 A2989 RMK A01 T03130091  RH  026%=      5-min Rain = 0
KFAS 132135Z 15006KT 31/10 A2989 RMK A01 T03140095  RH  026%=      5-min Rain = 0
KFAS 132140Z 15007KT 31/10 A2989 RMK A01 T03140102  RH  027%=      5-min Rain = 0
KFAS 132145Z 18009KT 32/10 A2989 RMK A01 T03150097  RH  026%=      5-min Rain = 0
KFAS 132150Z 19007KT 31/10 A2989 RMK A01 T03140095  RH  026%=      5-min Rain = 0
KFAS 132155Z 20005KT 32/09 A2989 RMK A01 T03150092  RH  026%=      5-min Rain = 0
KFAS 132200Z 18005G10KT 32/09 A2988 RMK A01 T03170092  RH  025%=      5-min Rain = 0
KFAS 132205Z 15006KT 32/09 A2988 RMK A01 T03170093  RH  025%=      5-min Rain = 0
KFAS 132210Z 14004KT 32/10 A2988 RMK A01 T03170099  RH  027%=      5-min Rain = 0
KFAS 132215Z 17002KT 32/08 A2988 RMK A01 T03180084  RH  024%=      5-min Rain = 0
KFAS 132220Z 21005KT 32/10 A2988 RMK A01 T03190098  RH  026%=      5-min Rain = 0
KFAS 132225Z 19005KT 32/09 A2988 RMK A01 T03170093  RH  025%=      5-min Rain = 0
KFAS 132230Z 16003KT 32/09 A2988 RMK A01 T03160091  RH  025%=      5-min Rain = 0
KFAS 132235Z 13002KT 32/09 A2988 RMK A01 T03180092  RH  025%=      5-min Rain = 0
KFAS 132240Z 15005KT 32/10 A2988 RMK A01 T03180097  RH  026%=      5-min Rain = 0
KFAS 132245Z 14007KT 32/09 A2988 RMK A01 T03160094  RH  026%=      5-min Rain = 0
KFAS 132250Z 19006KT 32/09 A2988 RMK A01 T03150092  RH  026%=      5-min Rain = 0
KFAS 132255Z 20003KT 32/09 A2988 RMK A01 T03150091  RH  025%=      5-min Rain = 0
KFAS 132300Z 17004KT 32/09 A2987 RMK A01 T03160093  RH  026%=      5-min Rain = 0
KFAS 132305Z 17004KT 32/10 A2987 RMK A01 T03170095  RH  026%=      5-min Rain = 0
KFAS 132310Z 17001KT 32/09 A2987 RMK A01 T03190092  RH  025%=      5-min Rain = 0
KFAS 132315Z 15002KT 32/10 A2987 RMK A01 T03230098  RH  025%=      5-min Rain = 0
KFAS 132320Z 16005KT 32/10 A2987 RMK A01 T03190096  RH  026%=      5-min Rain = 0
KFAS 132325Z 15004KT 32/10 A2987 RMK A01 T03150098  RH  027%=      5-min Rain = 0
KFAS 132330Z 17006KT 31/10 A2987 RMK A01 T03140102  RH  027%=      5-min Rain = 0
KFAS 132335Z 14006KT 31/10 A2987 RMK A01 T03120096  RH  027%=      5-min Rain = 0
KFAS 132340Z 13005KT 31/09 A2987 RMK A01 T03100093  RH  026%=      5-min Rain = 0
KFAS 132345Z 15004KT 31/10 A2987 RMK A01 T03100096  RH  027%=      5-min Rain = 0
KFAS 132350Z 14004KT 31/10 A2987 RMK A01 T03090096  RH  027%=      5-min Rain = 0
KFAS 132355Z 16004KT 31/10 A2987 RMK A01 T03090097  RH  027%=      5-min Rain = 0
KFAS 140000Z 16004KT 31/10 A2987 RMK A01 T03070099  RH  028%=      5-min Rain = 0
KFAS 140005Z 14004KT 31/10 A2987 RMK A01 T03060100  RH  028%=      5-min Rain = 0
KFAS 140010Z 16006KT 30/10 A2987 RMK A01 T03040098  RH  028%=      5-min Rain = 0
KFAS 140015Z 16005KT 30/10 A2988 RMK A01 T03010102  RH  030%=      5-min Rain = 0
KFAS 140020Z 15005KT 30/10 A2988 RMK A01 T02970101  RH  030%=      5-min Rain = 0
KFAS 140025Z 15005KT 30/10 A2988 RMK A01 T02950100  RH  030%=      5-min Rain = 0
KFAS 140030Z 15005KT 29/10 A2988 RMK A01 T02940102  RH  031%=      5-min Rain = 0
KFAS 140035Z 15005KT 29/10 A2988 RMK A01 T02910103  RH  032%=      5-min Rain = 0
KFAS 140040Z 15005KT 29/11 A2988 RMK A01 T02870105  RH  033%=      5-min Rain = 0
KFAS 140045Z 14006KT 28/11 A2988 RMK A01 T02820106  RH  034%=      5-min Rain = 0
KFAS 140050Z 14005KT 28/10 A2988 RMK A01 T02780104  RH  034%=      5-min Rain = 0
KFAS 140055Z 14005KT 28/11 A2988 RMK A01 T02750106  RH  035%=      5-min Rain = 0
KFAS 140100Z 14005KT 26/11 A2988 RMK A01 T02630111  RH  039%=      5-min Rain = 0
KFAS 140105Z 14006KT 26/10 A2988 RMK A01 T02600104  RH  038%=      5-min Rain = 0
KFAS 140110Z 14006KT 26/11 A2988 RMK A01 T02640105  RH  037%=      5-min Rain = 0
KFAS 140115Z 13006KT 26/11 A2988 RMK A01 T02630107  RH  038%=      5-min Rain = 0
KFAS 140120Z 13006KT 26/11 A2988 RMK A01 T02600107  RH  039%=      5-min Rain = 0
KFAS 140125Z 13006KT 26/11 A2988 RMK A01 T02580106  RH  039%=      5-min Rain = 0
KFAS 140130Z 12006KT 26/11 A2989 RMK A01 T02550108  RH  040%=      5-min Rain = 0
KFAS 140135Z 13007KT 25/11 A2989 RMK A01 T02510111  RH  042%=      5-min Rain = 0
KFAS 140140Z 13007KT 25/11 A2989 RMK A01 T02480112  RH  043%=      5-min Rain = 0
KFAS 140145Z 13006KT 25/11 A2989 RMK A01 T02450113  RH  044%=      5-min Rain = 0
KFAS 140150Z 13006KT 24/11 A2989 RMK A01 T02420114  RH  045%=      5-min Rain = 0
KFAS 140155Z 13008KT 24/12 A2989 RMK A01 T02380116  RH  047%=      5-min Rain = 0
KFAS 140200Z 14008KT 24/12 A2989 RMK A01 T02370119  RH  048%=      5-min Rain = 0
KFAS 140205Z 14007KT 24/12 A299 RMK A01 T02360119  RH  049%=      5-min Rain = 0
KFAS 140210Z 14007KT 23/12 A299 RMK A01 T02340119  RH  049%=      5-min Rain = 0
KFAS 140215Z 14007KT 23/12 A299 RMK A01 T02330119  RH  050%=      5-min Rain = 0
KFAS 140220Z 14006KT 23/12 A299 RMK A01 T02310118  RH  050%=      5-min Rain = 0
KFAS 140225Z 14006KT 23/12 A299 RMK A01 T02290118  RH  050%=      5-min Rain = 0
KFAS 140230Z 14006KT 23/12 A299 RMK A01 T02270116  RH  050%=      5-min Rain = 0
KFAS 140235Z 14006KT 23/11 A2991 RMK A01 T02280113  RH  049%=      5-min Rain = 0
KFAS 140240Z 14005KT 23/12 A2991 RMK A01 T02250115  RH  051%=      5-min Rain = 0
KFAS 140245Z 14004KT 22/12 A2991 RMK A01 T02210115  RH  052%=      5-min Rain = 0
KFAS 140250Z 14004KT 22/12 A2991 RMK A01 T02170115  RH  053%=      5-min Rain = 0
KFAS 140255Z 14004KT 22/11 A2991 RMK A01 T02150114  RH  054%=      5-min Rain = 0
KFAS 140300Z 14005KT 21/11 A2992 RMK A01 T02140114  RH  054%=      5-min Rain = 0
KFAS 140305Z 14005KT 21/12 A2992 RMK A01 T02140115  RH  054%=      5-min Rain = 0
KFAS 140310Z 13004KT 22/12 A2992 RMK A01 T02150115  RH  054%=      5-min Rain = 0
KFAS 140315Z 13004KT 21/11 A2992 RMK A01 T02130114  RH  054%=      5-min Rain = 0
KFAS 140320Z 13003KT 21/11 A2992 RMK A01 T02110114  RH  055%=      5-min Rain = 0
KFAS 140325Z 13003KT 21/11 A2992 RMK A01 T02080114  RH  056%=      5-min Rain = 0
KFAS 140330Z 13003KT 21/11 A2992 RMK A01 T02050114  RH  057%=      5-min Rain = 0
KFAS 140335Z 14003KT 20/11 A2992 RMK A01 T02020113  RH  058%=      5-min Rain = 0
KFAS 140340Z 14002KT 20/11 A2992 RMK A01 T01990113  RH  059%=      5-min Rain = 0
KFAS 140345Z 13002KT 20/11 A2993 RMK A01 T01970113  RH  059%=      5-min Rain = 0
KFAS 140350Z 13002KT 20/11 A2993 RMK A01 T01950113  RH  060%=      5-min Rain = 0
KFAS 140355Z 15004KT 20/11 A2992 RMK A01 T01960114  RH  060%=      5-min Rain = 0
KFAS 140400Z 16006KT 19/12 A2992 RMK A01 T01940117  RH  062%=      5-min Rain = 0
KFAS 140405Z 16007KT 19/12 A2992 RMK A01 T01900117  RH  064%=      5-min Rain = 0
KFAS 140410Z 15007KT 19/12 A2992 RMK A01 T01880115  RH  064%=      5-min Rain = 0
KFAS 140415Z 15006KT 19/11 A2992 RMK A01 T01920114  RH  062%=      5-min Rain = 0
KFAS 140420Z 15007KT 20/11 A2992 RMK A01 T01960114  RH  060%=      5-min Rain = 0
KFAS 140425Z 15007KT 20/11 A2992 RMK A01 T01990114  RH  059%=      5-min Rain = 0
KFAS 140430Z 15007KT 20/11 A2992 RMK A01 T01990112  RH  058%=      5-min Rain = 0
KFAS 140435Z 14010KT 20/11 A2992 RMK A01 T02030110  RH  056%=      5-min Rain = 0
KFAS 140440Z 14009KT 21/11 A2992 RMK A01 T02090109  RH  053%=      5-min Rain = 0
KFAS 140445Z 14011KT 21/11 A2992 RMK A01 T02130107  RH  052%=      5-min Rain = 0
KFAS 140450Z 14013KT 22/11 A2992 RMK A01 T02180106  RH  050%=      5-min Rain = 0
KFAS 140455Z 14013KT 22/11 A2992 RMK A01 T02200106  RH  049%=      5-min Rain = 0

Page generated in 0.0342 seconds.